sensor_id;sensor_type;location;lat;lon;timestamp;P1;durP1;ratioP1;P2;durP2;ratioP2
8849;SDS011;5638;50.860;4.698;2022-10-30T00:00:20;14.33;;;5.70;;
8849;SDS011;5638;50.860;4.698;2022-10-30T00:02:46;12.10;;;5.33;;
8849;SDS011;5638;50.860;4.698;2022-10-30T00:05:13;10.50;;;5.20;;
8849;SDS011;5638;50.860;4.698;2022-10-30T00:07:40;12.53;;;5.90;;
8849;SDS011;5638;50.860;4.698;2022-10-30T00:10:06;10.60;;;5.93;;
8849;SDS011;5638;50.860;4.698;2022-10-30T00:12:33;13.37;;;5.50;;
8849;SDS011;5638;50.860;4.698;2022-10-30T00:14:59;7.93;;;5.27;;
8849;SDS011;5638;50.860;4.698;2022-10-30T00:17:25;10.00;;;5.43;;
8849;SDS011;5638;50.860;4.698;2022-10-30T00:19:51;10.40;;;5.40;;
8849;SDS011;5638;50.860;4.698;2022-10-30T00:22:17;9.93;;;5.10;;
8849;SDS011;5638;50.860;4.698;2022-10-30T00:24:43;11.13;;;4.97;;
8849;SDS011;5638;50.860;4.698;2022-10-30T00:27:09;9.13;;;5.37;;
8849;SDS011;5638;50.860;4.698;2022-10-30T00:29:35;10.50;;;4.93;;
8849;SDS011;5638;50.860;4.698;2022-10-30T00:32:00;8.53;;;4.90;;
8849;SDS011;5638;50.860;4.698;2022-10-30T00:34:26;12.07;;;4.80;;
8849;SDS011;5638;50.860;4.698;2022-10-30T00:36:52;16.57;;;5.47;;
8849;SDS011;5638;50.860;4.698;2022-10-30T00:39:18;10.43;;;5.00;;
8849;SDS011;5638;50.860;4.698;2022-10-30T00:41:44;7.63;;;4.37;;
8849;SDS011;5638;50.860;4.698;2022-10-30T00:47:10;10.83;;;4.63;;
8849;SDS011;5638;50.860;4.698;2022-10-30T00:49:46;10.07;;;4.40;;
8849;SDS011;5638;50.860;4.698;2022-10-30T00:52:21;8.57;;;4.27;;
8849;SDS011;5638;50.860;4.698;2022-10-30T00:54:53;15.37;;;4.40;;
8849;SDS011;5638;50.860;4.698;2022-10-30T00:57:23;10.00;;;4.40;;
8849;SDS011;5638;50.860;4.698;2022-10-30T00:59:50;8.70;;;4.00;;
8849;SDS011;5638;50.860;4.698;2022-10-30T01:02:16;10.63;;;4.27;;
8849;SDS011;5638;50.860;4.698;2022-10-30T01:04:45;8.80;;;4.27;;
8849;SDS011;5638;50.860;4.698;2022-10-30T01:07:14;6.83;;;4.20;;
8849;SDS011;5638;50.860;4.698;2022-10-30T01:09:41;8.70;;;4.17;;
8849;SDS011;5638;50.860;4.698;2022-10-30T01:12:09;10.17;;;4.03;;
8849;SDS011;5638;50.860;4.698;2022-10-30T01:14:35;12.33;;;4.60;;
8849;SDS011;5638;50.860;4.698;2022-10-30T01:17:18;9.77;;;4.13;;
8849;SDS011;5638;50.860;4.698;2022-10-30T01:34:54;8.80;;;4.10;;
8849;SDS011;5638;50.860;4.698;2022-10-30T01:37:35;7.87;;;3.57;;
8849;SDS011;5638;50.860;4.698;2022-10-30T01:40:12;8.80;;;4.53;;
8849;SDS011;5638;50.860;4.698;2022-10-30T01:42:54;8.10;;;3.80;;
8849;SDS011;5638;50.860;4.698;2022-10-30T01:50:38;9.80;;;4.03;;
8849;SDS011;5638;50.860;4.698;2022-10-30T01:53:42;10.60;;;4.03;;
8849;SDS011;5638;50.860;4.698;2022-10-30T01:56:54;12.70;;;3.80;;
8849;SDS011;5638;50.860;4.698;2022-10-30T01:59:57;12.43;;;4.40;;
8849;SDS011;5638;50.860;4.698;2022-10-30T02:02:35;10.77;;;4.53;;
8849;SDS011;5638;50.860;4.698;2022-10-30T02:05:02;10.47;;;4.27;;
8849;SDS011;5638;50.860;4.698;2022-10-30T02:07:31;10.60;;;4.10;;
8849;SDS011;5638;50.860;4.698;2022-10-30T02:09:57;6.43;;;3.73;;
8849;SDS011;5638;50.860;4.698;2022-10-30T02:12:23;10.60;;;4.30;;
8849;SDS011;5638;50.860;4.698;2022-10-30T02:14:51;9.63;;;4.10;;
8849;SDS011;5638;50.860;4.698;2022-10-30T02:17:24;6.63;;;3.90;;
8849;SDS011;5638;50.860;4.698;2022-10-30T02:19:52;8.73;;;3.97;;
8849;SDS011;5638;50.860;4.698;2022-10-30T02:22:18;7.40;;;3.90;;
8849;SDS011;5638;50.860;4.698;2022-10-30T02:24:44;11.80;;;3.90;;
8849;SDS011;5638;50.860;4.698;2022-10-30T02:27:10;5.70;;;3.83;;
8849;SDS011;5638;50.860;4.698;2022-10-30T02:29:36;7.27;;;3.77;;
8849;SDS011;5638;50.860;4.698;2022-10-30T02:32:02;11.77;;;4.10;;
8849;SDS011;5638;50.860;4.698;2022-10-30T02:34:28;11.63;;;4.13;;
8849;SDS011;5638;50.860;4.698;2022-10-30T02:36:54;10.43;;;4.43;;
8849;SDS011;5638;50.860;4.698;2022-10-30T02:39:20;7.23;;;4.27;;
8849;SDS011;5638;50.860;4.698;2022-10-30T02:41:46;6.93;;;3.60;;
8849;SDS011;5638;50.860;4.698;2022-10-30T02:44:12;11.77;;;4.40;;
8849;SDS011;5638;50.860;4.698;2022-10-30T02:46:38;7.83;;;4.00;;
8849;SDS011;5638;50.860;4.698;2022-10-30T02:49:04;15.50;;;4.47;;
8849;SDS011;5638;50.860;4.698;2022-10-30T02:51:30;9.80;;;4.30;;
8849;SDS011;5638;50.860;4.698;2022-10-30T02:53:57;9.23;;;4.13;;
8849;SDS011;5638;50.860;4.698;2022-10-30T02:56:24;10.03;;;4.00;;
8849;SDS011;5638;50.860;4.698;2022-10-30T02:58:51;10.63;;;4.00;;
8849;SDS011;5638;50.860;4.698;2022-10-30T03:01:17;9.77;;;4.30;;
8849;SDS011;5638;50.860;4.698;2022-10-30T03:03:44;10.60;;;4.20;;
8849;SDS011;5638;50.860;4.698;2022-10-30T03:06:12;8.40;;;4.40;;
8849;SDS011;5638;50.860;4.698;2022-10-30T03:08:41;8.83;;;4.37;;
8849;SDS011;5638;50.860;4.698;2022-10-30T03:11:09;6.30;;;3.80;;
8849;SDS011;5638;50.860;4.698;2022-10-30T03:13:39;5.60;;;3.33;;
8849;SDS011;5638;50.860;4.698;2022-10-30T03:16:07;12.10;;;3.97;;
8849;SDS011;5638;50.860;4.698;2022-10-30T03:18:39;12.33;;;3.90;;
8849;SDS011;5638;50.860;4.698;2022-10-30T03:21:07;6.40;;;4.17;;
8849;SDS011;5638;50.860;4.698;2022-10-30T03:23:36;7.30;;;3.67;;
8849;SDS011;5638;50.860;4.698;2022-10-30T03:26:03;6.70;;;3.73;;
8849;SDS011;5638;50.860;4.698;2022-10-30T03:28:30;12.13;;;3.70;;
8849;SDS011;5638;50.860;4.698;2022-10-30T03:30:57;4.87;;;3.40;;
8849;SDS011;5638;50.860;4.698;2022-10-30T03:33:26;10.10;;;3.70;;
8849;SDS011;5638;50.860;4.698;2022-10-30T03:35:52;8.43;;;3.73;;
8849;SDS011;5638;50.860;4.698;2022-10-30T03:38:19;7.23;;;3.53;;
8849;SDS011;5638;50.860;4.698;2022-10-30T03:40:45;8.13;;;3.80;;
8849;SDS011;5638;50.860;4.698;2022-10-30T03:43:11;9.73;;;3.97;;
8849;SDS011;5638;50.860;4.698;2022-10-30T03:45:37;5.97;;;4.00;;
8849;SDS011;5638;50.860;4.698;2022-10-30T03:48:03;10.33;;;4.83;;
8849;SDS011;5638;50.860;4.698;2022-10-30T03:50:30;8.10;;;3.77;;
8849;SDS011;5638;50.860;4.698;2022-10-30T03:52:57;9.93;;;4.77;;
8849;SDS011;5638;50.860;4.698;2022-10-30T03:55:24;6.73;;;3.90;;
8849;SDS011;5638;50.860;4.698;2022-10-30T03:57:50;8.73;;;4.63;;
8849;SDS011;5638;50.860;4.698;2022-10-30T04:00:16;6.83;;;3.70;;
8849;SDS011;5638;50.860;4.698;2022-10-30T04:02:43;10.80;;;4.50;;
8849;SDS011;5638;50.860;4.698;2022-10-30T04:05:13;7.57;;;4.10;;
8849;SDS011;5638;50.860;4.698;2022-10-30T04:07:41;12.10;;;4.00;;
8849;SDS011;5638;50.860;4.698;2022-10-30T04:10:08;13.20;;;4.60;;
8849;SDS011;5638;50.860;4.698;2022-10-30T04:12:34;12.23;;;4.53;;
8849;SDS011;5638;50.860;4.698;2022-10-30T04:15:00;10.47;;;3.93;;
8849;SDS011;5638;50.860;4.698;2022-10-30T04:17:26;7.20;;;3.97;;
8849;SDS011;5638;50.860;4.698;2022-10-30T04:19:52;8.57;;;4.43;;
8849;SDS011;5638;50.860;4.698;2022-10-30T04:22:17;7.43;;;3.97;;
8849;SDS011;5638;50.860;4.698;2022-10-30T04:24:43;11.77;;;5.10;;
8849;SDS011;5638;50.860;4.698;2022-10-30T04:27:10;6.97;;;4.50;;
8849;SDS011;5638;50.860;4.698;2022-10-30T04:29:37;9.90;;;4.20;;
8849;SDS011;5638;50.860;4.698;2022-10-30T04:32:03;6.63;;;4.77;;
8849;SDS011;5638;50.860;4.698;2022-10-30T04:34:29;9.57;;;4.37;;
8849;SDS011;5638;50.860;4.698;2022-10-30T04:36:55;6.20;;;4.07;;
8849;SDS011;5638;50.860;4.698;2022-10-30T04:39:21;15.17;;;4.53;;
8849;SDS011;5638;50.860;4.698;2022-10-30T04:41:46;7.27;;;4.07;;
8849;SDS011;5638;50.860;4.698;2022-10-30T04:44:12;12.87;;;4.37;;
8849;SDS011;5638;50.860;4.698;2022-10-30T04:46:38;10.17;;;4.10;;
8849;SDS011;5638;50.860;4.698;2022-10-30T04:49:04;9.87;;;4.40;;
8849;SDS011;5638;50.860;4.698;2022-10-30T04:51:30;8.80;;;4.03;;
8849;SDS011;5638;50.860;4.698;2022-10-30T04:53:56;8.80;;;3.73;;
8849;SDS011;5638;50.860;4.698;2022-10-30T04:56:22;6.37;;;3.97;;
8849;SDS011;5638;50.860;4.698;2022-10-30T04:58:49;9.43;;;4.53;;
8849;SDS011;5638;50.860;4.698;2022-10-30T05:01:14;8.57;;;4.23;;
8849;SDS011;5638;50.860;4.698;2022-10-30T05:03:40;9.83;;;4.43;;
8849;SDS011;5638;50.860;4.698;2022-10-30T05:06:20;7.63;;;4.37;;
8849;SDS011;5638;50.860;4.698;2022-10-30T05:08:50;7.63;;;4.20;;
8849;SDS011;5638;50.860;4.698;2022-10-30T05:11:16;8.73;;;4.23;;
8849;SDS011;5638;50.860;4.698;2022-10-30T05:13:43;6.67;;;3.63;;
8849;SDS011;5638;50.860;4.698;2022-10-30T05:16:08;7.43;;;3.87;;
8849;SDS011;5638;50.860;4.698;2022-10-30T05:18:34;7.87;;;4.10;;
8849;SDS011;5638;50.860;4.698;2022-10-30T05:21:00;14.73;;;4.07;;
8849;SDS011;5638;50.860;4.698;2022-10-30T05:23:26;4.80;;;3.93;;
8849;SDS011;5638;50.860;4.698;2022-10-30T05:25:52;7.90;;;3.97;;
8849;SDS011;5638;50.860;4.698;2022-10-30T05:28:18;8.93;;;3.83;;
8849;SDS011;5638;50.860;4.698;2022-10-30T05:30:43;12.17;;;4.43;;
8849;SDS011;5638;50.860;4.698;2022-10-30T05:33:10;6.20;;;4.10;;
8849;SDS011;5638;50.860;4.698;2022-10-30T05:35:36;7.63;;;3.87;;
8849;SDS011;5638;50.860;4.698;2022-10-30T05:38:03;9.37;;;4.33;;
8849;SDS011;5638;50.860;4.698;2022-10-30T05:40:31;8.27;;;4.40;;
8849;SDS011;5638;50.860;4.698;2022-10-30T05:42:58;7.53;;;4.43;;
8849;SDS011;5638;50.860;4.698;2022-10-30T05:45:25;6.83;;;4.60;;
8849;SDS011;5638;50.860;4.698;2022-10-30T05:47:54;10.83;;;4.00;;
8849;SDS011;5638;50.860;4.698;2022-10-30T05:50:27;10.53;;;4.23;;
8849;SDS011;5638;50.860;4.698;2022-10-30T05:52:55;11.13;;;4.10;;
8849;SDS011;5638;50.860;4.698;2022-10-30T05:55:25;8.70;;;3.57;;
8849;SDS011;5638;50.860;4.698;2022-10-30T05:57:59;5.10;;;3.60;;
8849;SDS011;5638;50.860;4.698;2022-10-30T06:00:28;8.83;;;4.27;;
8849;SDS011;5638;50.860;4.698;2022-10-30T06:03:01;6.13;;;3.63;;
8849;SDS011;5638;50.860;4.698;2022-10-30T06:05:30;6.17;;;4.00;;
8849;SDS011;5638;50.860;4.698;2022-10-30T06:07:58;7.50;;;4.13;;
8849;SDS011;5638;50.860;4.698;2022-10-30T06:10:25;6.20;;;3.70;;
8849;SDS011;5638;50.860;4.698;2022-10-30T06:12:56;10.33;;;3.70;;
8849;SDS011;5638;50.860;4.698;2022-10-30T06:15:28;8.47;;;4.33;;
8849;SDS011;5638;50.860;4.698;2022-10-30T06:17:56;10.30;;;4.13;;
8849;SDS011;5638;50.860;4.698;2022-10-30T06:20:24;11.23;;;4.30;;
8849;SDS011;5638;50.860;4.698;2022-10-30T06:22:56;10.17;;;4.33;;
8849;SDS011;5638;50.860;4.698;2022-10-30T06:25:24;10.77;;;4.03;;
8849;SDS011;5638;50.860;4.698;2022-10-30T06:27:52;10.67;;;4.23;;
8849;SDS011;5638;50.860;4.698;2022-10-30T06:30:19;8.93;;;4.47;;
8849;SDS011;5638;50.860;4.698;2022-10-30T06:32:45;7.90;;;3.97;;
8849;SDS011;5638;50.860;4.698;2022-10-30T06:35:12;8.07;;;4.17;;
8849;SDS011;5638;50.860;4.698;2022-10-30T06:37:48;6.73;;;4.00;;
8849;SDS011;5638;50.860;4.698;2022-10-30T06:40:15;6.60;;;3.50;;
8849;SDS011;5638;50.860;4.698;2022-10-30T06:42:45;6.10;;;3.60;;
8849;SDS011;5638;50.860;4.698;2022-10-30T06:45:14;8.17;;;3.93;;
8849;SDS011;5638;50.860;4.698;2022-10-30T06:47:41;6.20;;;3.87;;
8849;SDS011;5638;50.860;4.698;2022-10-30T06:50:09;8.43;;;4.53;;
8849;SDS011;5638;50.860;4.698;2022-10-30T06:52:39;7.60;;;3.80;;
8849;SDS011;5638;50.860;4.698;2022-10-30T06:55:05;9.47;;;4.80;;
8849;SDS011;5638;50.860;4.698;2022-10-30T06:57:32;9.83;;;4.03;;
8849;SDS011;5638;50.860;4.698;2022-10-30T06:59:58;7.03;;;4.00;;
8849;SDS011;5638;50.860;4.698;2022-10-30T07:02:24;8.37;;;3.97;;
8849;SDS011;5638;50.860;4.698;2022-10-30T07:04:49;6.83;;;4.07;;
8849;SDS011;5638;50.860;4.698;2022-10-30T07:07:15;9.80;;;3.90;;
8849;SDS011;5638;50.860;4.698;2022-10-30T07:09:41;9.23;;;4.10;;
8849;SDS011;5638;50.860;4.698;2022-10-30T07:12:10;9.07;;;4.13;;
8849;SDS011;5638;50.860;4.698;2022-10-30T07:14:36;11.30;;;4.27;;
8849;SDS011;5638;50.860;4.698;2022-10-30T07:17:02;8.47;;;4.23;;
8849;SDS011;5638;50.860;4.698;2022-10-30T07:19:28;8.37;;;4.13;;
8849;SDS011;5638;50.860;4.698;2022-10-30T07:21:54;8.33;;;3.90;;
8849;SDS011;5638;50.860;4.698;2022-10-30T07:24:20;6.83;;;4.10;;
8849;SDS011;5638;50.860;4.698;2022-10-30T07:26:45;6.67;;;4.17;;
8849;SDS011;5638;50.860;4.698;2022-10-30T07:29:11;11.27;;;4.27;;
8849;SDS011;5638;50.860;4.698;2022-10-30T07:31:37;11.20;;;4.67;;
8849;SDS011;5638;50.860;4.698;2022-10-30T07:34:03;9.57;;;4.93;;
8849;SDS011;5638;50.860;4.698;2022-10-30T07:36:29;8.90;;;4.73;;
8849;SDS011;5638;50.860;4.698;2022-10-30T07:38:55;10.50;;;4.33;;
8849;SDS011;5638;50.860;4.698;2022-10-30T07:41:20;7.93;;;4.47;;
8849;SDS011;5638;50.860;4.698;2022-10-30T07:43:46;7.80;;;4.50;;
8849;SDS011;5638;50.860;4.698;2022-10-30T07:46:12;9.17;;;4.67;;
8849;SDS011;5638;50.860;4.698;2022-10-30T07:48:39;8.83;;;4.17;;
8849;SDS011;5638;50.860;4.698;2022-10-30T07:51:05;10.73;;;5.23;;
8849;SDS011;5638;50.860;4.698;2022-10-30T07:53:32;9.67;;;4.70;;
8849;SDS011;5638;50.860;4.698;2022-10-30T07:55:59;6.63;;;3.87;;
8849;SDS011;5638;50.860;4.698;2022-10-30T07:58:25;9.37;;;3.80;;
8849;SDS011;5638;50.860;4.698;2022-10-30T08:00:50;12.13;;;4.07;;
8849;SDS011;5638;50.860;4.698;2022-10-30T08:03:16;5.97;;;4.20;;
8849;SDS011;5638;50.860;4.698;2022-10-30T08:05:42;8.73;;;3.87;;
8849;SDS011;5638;50.860;4.698;2022-10-30T08:08:08;8.17;;;4.17;;
8849;SDS011;5638;50.860;4.698;2022-10-30T08:10:34;15.57;;;4.20;;
8849;SDS011;5638;50.860;4.698;2022-10-30T08:13:01;9.33;;;4.13;;
8849;SDS011;5638;50.860;4.698;2022-10-30T08:15:27;8.40;;;4.30;;
8849;SDS011;5638;50.860;4.698;2022-10-30T08:17:53;9.70;;;4.90;;
8849;SDS011;5638;50.860;4.698;2022-10-30T08:20:20;8.47;;;4.30;;
8849;SDS011;5638;50.860;4.698;2022-10-30T08:22:52;8.97;;;4.10;;
8849;SDS011;5638;50.860;4.698;2022-10-30T08:25:22;12.10;;;5.23;;
8849;SDS011;5638;50.860;4.698;2022-10-30T08:27:52;9.67;;;4.40;;
8849;SDS011;5638;50.860;4.698;2022-10-30T08:30:22;7.27;;;4.80;;
8849;SDS011;5638;50.860;4.698;2022-10-30T08:32:51;5.80;;;3.93;;
8849;SDS011;5638;50.860;4.698;2022-10-30T08:35:21;6.97;;;4.17;;
8849;SDS011;5638;50.860;4.698;2022-10-30T08:37:47;8.17;;;4.33;;
8849;SDS011;5638;50.860;4.698;2022-10-30T08:40:13;12.87;;;4.60;;
8849;SDS011;5638;50.860;4.698;2022-10-30T08:42:39;6.70;;;4.47;;
8849;SDS011;5638;50.860;4.698;2022-10-30T08:45:05;7.73;;;4.00;;
8849;SDS011;5638;50.860;4.698;2022-10-30T08:47:34;6.17;;;4.00;;
8849;SDS011;5638;50.860;4.698;2022-10-30T08:50:01;6.33;;;3.63;;
8849;SDS011;5638;50.860;4.698;2022-10-30T08:52:27;7.97;;;4.07;;
8849;SDS011;5638;50.860;4.698;2022-10-30T08:54:53;5.57;;;4.00;;
8849;SDS011;5638;50.860;4.698;2022-10-30T08:57:19;7.53;;;3.67;;
8849;SDS011;5638;50.860;4.698;2022-10-30T08:59:45;4.77;;;3.57;;
8849;SDS011;5638;50.860;4.698;2022-10-30T09:02:10;9.97;;;4.07;;
8849;SDS011;5638;50.860;4.698;2022-10-30T09:04:36;9.47;;;3.93;;
8849;SDS011;5638;50.860;4.698;2022-10-30T09:07:02;8.47;;;3.80;;
8849;SDS011;5638;50.860;4.698;2022-10-30T09:09:28;7.03;;;4.10;;
8849;SDS011;5638;50.860;4.698;2022-10-30T09:11:53;7.60;;;3.57;;
8849;SDS011;5638;50.860;4.698;2022-10-30T09:14:19;10.03;;;4.10;;
8849;SDS011;5638;50.860;4.698;2022-10-30T09:16:45;7.47;;;4.27;;
8849;SDS011;5638;50.860;4.698;2022-10-30T09:19:11;8.80;;;4.30;;
8849;SDS011;5638;50.860;4.698;2022-10-30T09:21:37;7.70;;;3.80;;
8849;SDS011;5638;50.860;4.698;2022-10-30T09:24:03;8.17;;;3.67;;
8849;SDS011;5638;50.860;4.698;2022-10-30T09:26:29;7.93;;;4.00;;
8849;SDS011;5638;50.860;4.698;2022-10-30T09:28:56;7.97;;;4.43;;
8849;SDS011;5638;50.860;4.698;2022-10-30T09:31:21;7.67;;;4.10;;
8849;SDS011;5638;50.860;4.698;2022-10-30T09:33:47;13.33;;;4.37;;
8849;SDS011;5638;50.860;4.698;2022-10-30T09:36:13;8.57;;;4.33;;
8849;SDS011;5638;50.860;4.698;2022-10-30T09:38:39;7.57;;;3.80;;
8849;SDS011;5638;50.860;4.698;2022-10-30T09:41:09;5.03;;;3.70;;
8849;SDS011;5638;50.860;4.698;2022-10-30T09:52:40;9.37;;;4.27;;
8849;SDS011;5638;50.860;4.698;2022-10-30T09:55:30;6.93;;;4.03;;
8849;SDS011;5638;50.860;4.698;2022-10-30T10:01:08;5.27;;;3.50;;
8849;SDS011;5638;50.860;4.698;2022-10-30T10:04:15;8.27;;;3.87;;
8849;SDS011;5638;50.860;4.698;2022-10-30T10:09:58;7.03;;;3.70;;
8849;SDS011;5638;50.860;4.698;2022-10-30T10:15:10;9.23;;;3.57;;
8849;SDS011;5638;50.860;4.698;2022-10-30T10:17:57;9.50;;;3.77;;
8849;SDS011;5638;50.860;4.698;2022-10-30T10:20:36;5.30;;;3.50;;
8849;SDS011;5638;50.860;4.698;2022-10-30T10:23:13;9.37;;;3.67;;
8849;SDS011;5638;50.860;4.698;2022-10-30T10:25:46;10.20;;;4.17;;
8849;SDS011;5638;50.860;4.698;2022-10-30T10:28:26;7.00;;;3.67;;
8849;SDS011;5638;50.860;4.698;2022-10-30T10:34:20;8.60;;;3.87;;
8849;SDS011;5638;50.860;4.698;2022-10-30T10:49:11;13.27;;;3.70;;
8849;SDS011;5638;50.860;4.698;2022-10-30T10:52:33;6.87;;;3.63;;
8849;SDS011;5638;50.860;4.698;2022-10-30T10:54:49;11.30;;;4.30;;
8849;SDS011;5638;50.860;4.698;2022-10-30T10:57:35;9.33;;;3.60;;
8849;SDS011;5638;50.860;4.698;2022-10-30T11:00:20;7.10;;;3.53;;
8849;SDS011;5638;50.860;4.698;2022-10-30T11:02:50;5.30;;;3.47;;
8849;SDS011;5638;50.860;4.698;2022-10-30T11:06:01;7.77;;;3.17;;
8849;SDS011;5638;50.860;4.698;2022-10-30T11:08:39;10.03;;;3.73;;
8849;SDS011;5638;50.860;4.698;2022-10-30T11:11:05;8.60;;;3.40;;
8849;SDS011;5638;50.860;4.698;2022-10-30T11:13:36;7.07;;;3.10;;
8849;SDS011;5638;50.860;4.698;2022-10-30T11:18:57;6.10;;;3.43;;
8849;SDS011;5638;50.860;4.698;2022-10-30T11:21:28;7.97;;;3.37;;
8849;SDS011;5638;50.860;4.698;2022-10-30T11:24:02;9.23;;;3.07;;
8849;SDS011;5638;50.860;4.698;2022-10-30T11:26:30;5.70;;;3.27;;
8849;SDS011;5638;50.860;4.698;2022-10-30T11:29:12;9.30;;;3.43;;
8849;SDS011;5638;50.860;4.698;2022-10-30T11:31:43;9.70;;;3.53;;
8849;SDS011;5638;50.860;4.698;2022-10-30T11:34:14;8.57;;;3.70;;
8849;SDS011;5638;50.860;4.698;2022-10-30T11:36:44;6.00;;;3.77;;
8849;SDS011;5638;50.860;4.698;2022-10-30T11:42:13;15.57;;;4.63;;
8849;SDS011;5638;50.860;4.698;2022-10-30T11:44:49;7.87;;;4.20;;
8849;SDS011;5638;50.860;4.698;2022-10-30T11:47:17;8.90;;;4.20;;
8849;SDS011;5638;50.860;4.698;2022-10-30T11:49:52;10.17;;;4.30;;
8849;SDS011;5638;50.860;4.698;2022-10-30T11:52:25;6.87;;;3.57;;
8849;SDS011;5638;50.860;4.698;2022-10-30T11:54:56;9.27;;;3.77;;
8849;SDS011;5638;50.860;4.698;2022-10-30T11:57:50;5.07;;;3.17;;
8849;SDS011;5638;50.860;4.698;2022-10-30T12:00:21;6.60;;;3.40;;
8849;SDS011;5638;50.860;4.698;2022-10-30T12:02:54;6.97;;;4.03;;
8849;SDS011;5638;50.860;4.698;2022-10-30T12:10:44;8.80;;;3.20;;
8849;SDS011;5638;50.860;4.698;2022-10-30T12:13:17;7.47;;;3.50;;
8849;SDS011;5638;50.860;4.698;2022-10-30T12:15:48;5.00;;;2.97;;
8849;SDS011;5638;50.860;4.698;2022-10-30T12:18:29;9.50;;;3.73;;
8849;SDS011;5638;50.860;4.698;2022-10-30T12:20:57;7.10;;;3.13;;
8849;SDS011;5638;50.860;4.698;2022-10-30T12:23:25;9.43;;;3.33;;
8849;SDS011;5638;50.860;4.698;2022-10-30T12:25:57;9.10;;;3.93;;
8849;SDS011;5638;50.860;4.698;2022-10-30T12:28:32;12.77;;;3.20;;
8849;SDS011;5638;50.860;4.698;2022-10-30T12:31:02;7.00;;;3.37;;
8849;SDS011;5638;50.860;4.698;2022-10-30T12:37:39;7.40;;;3.13;;
8849;SDS011;5638;50.860;4.698;2022-10-30T12:45:43;9.40;;;3.43;;
8849;SDS011;5638;50.860;4.698;2022-10-30T12:48:14;11.80;;;4.00;;
8849;SDS011;5638;50.860;4.698;2022-10-30T12:51:18;6.97;;;3.43;;
8849;SDS011;5638;50.860;4.698;2022-10-30T12:54:11;6.73;;;3.40;;
8849;SDS011;5638;50.860;4.698;2022-10-30T12:56:50;8.73;;;3.70;;
8849;SDS011;5638;50.860;4.698;2022-10-30T13:11:02;6.73;;;3.10;;
8849;SDS011;5638;50.860;4.698;2022-10-30T13:13:47;10.00;;;3.33;;
8849;SDS011;5638;50.860;4.698;2022-10-30T13:16:21;8.60;;;3.53;;
8849;SDS011;5638;50.860;4.698;2022-10-30T13:18:58;7.80;;;3.47;;
8849;SDS011;5638;50.860;4.698;2022-10-30T13:21:30;5.23;;;3.43;;
8849;SDS011;5638;50.860;4.698;2022-10-30T13:24:10;9.33;;;3.40;;
8849;SDS011;5638;50.860;4.698;2022-10-30T13:30:18;9.13;;;4.13;;
8849;SDS011;5638;50.860;4.698;2022-10-30T13:38:40;9.55;;;3.30;;
8849;SDS011;5638;50.860;4.698;2022-10-30T13:44:32;8.77;;;3.50;;
8849;SDS011;5638;50.860;4.698;2022-10-30T13:53:42;5.15;;;3.42;;
8849;SDS011;5638;50.860;4.698;2022-10-30T13:56:18;9.25;;;4.32;;
8849;SDS011;5638;50.860;4.698;2022-10-30T13:58:53;7.53;;;3.47;;
8849;SDS011;5638;50.860;4.698;2022-10-30T14:01:50;8.95;;;4.30;;
8849;SDS011;5638;50.860;4.698;2022-10-30T14:04:33;13.00;;;3.70;;
8849;SDS011;5638;50.860;4.698;2022-10-30T14:07:16;11.48;;;3.35;;
8849;SDS011;5638;50.860;4.698;2022-10-30T14:13:24;6.70;;;3.33;;
8849;SDS011;5638;50.860;4.698;2022-10-30T14:16:10;9.77;;;3.40;;
8849;SDS011;5638;50.860;4.698;2022-10-30T14:19:09;7.85;;;3.40;;
8849;SDS011;5638;50.860;4.698;2022-10-30T14:24:27;9.20;;;3.63;;
8849;SDS011;5638;50.860;4.698;2022-10-30T14:29:29;9.53;;;3.67;;
8849;SDS011;5638;50.860;4.698;2022-10-30T14:32:31;5.67;;;2.87;;
8849;SDS011;5638;50.860;4.698;2022-10-30T14:39:51;7.23;;;2.83;;
8849;SDS011;5638;50.860;4.698;2022-10-30T14:48:11;5.97;;;3.20;;
8849;SDS011;5638;50.860;4.698;2022-10-30T14:51:36;8.00;;;3.30;;
8849;SDS011;5638;50.860;4.698;2022-10-30T14:54:23;6.50;;;2.87;;
8849;SDS011;5638;50.860;4.698;2022-10-30T14:57:03;5.33;;;2.97;;
8849;SDS011;5638;50.860;4.698;2022-10-30T14:59:46;8.50;;;3.63;;
8849;SDS011;5638;50.860;4.698;2022-10-30T15:07:30;7.70;;;3.60;;
8849;SDS011;5638;50.860;4.698;2022-10-30T15:10:18;10.30;;;3.00;;
8849;SDS011;5638;50.860;4.698;2022-10-30T15:15:55;6.07;;;2.90;;
8849;SDS011;5638;50.860;4.698;2022-10-30T15:18:28;9.03;;;3.27;;
8849;SDS011;5638;50.860;4.698;2022-10-30T15:20:55;12.03;;;3.73;;
8849;SDS011;5638;50.860;4.698;2022-10-30T15:23:33;10.93;;;4.00;;
8849;SDS011;5638;50.860;4.698;2022-10-30T15:26:06;10.53;;;3.23;;
8849;SDS011;5638;50.860;4.698;2022-10-30T15:28:44;7.47;;;3.73;;
8849;SDS011;5638;50.860;4.698;2022-10-30T15:33:48;9.30;;;3.30;;
8849;SDS011;5638;50.860;4.698;2022-10-30T15:36:19;9.07;;;3.77;;
8849;SDS011;5638;50.860;4.698;2022-10-30T15:39:09;11.57;;;4.33;;
8849;SDS011;5638;50.860;4.698;2022-10-30T15:41:50;12.17;;;4.23;;
8849;SDS011;5638;50.860;4.698;2022-10-30T15:44:22;11.70;;;5.27;;
8849;SDS011;5638;50.860;4.698;2022-10-30T15:46:59;12.67;;;4.53;;
8849;SDS011;5638;50.860;4.698;2022-10-30T15:49:29;7.80;;;4.07;;
8849;SDS011;5638;50.860;4.698;2022-10-30T15:55:08;11.87;;;4.70;;
8849;SDS011;5638;50.860;4.698;2022-10-30T15:57:48;9.00;;;4.67;;
8849;SDS011;5638;50.860;4.698;2022-10-30T16:00:21;9.63;;;4.27;;
8849;SDS011;5638;50.860;4.698;2022-10-30T16:03:01;8.73;;;4.60;;
8849;SDS011;5638;50.860;4.698;2022-10-30T16:05:40;10.37;;;4.57;;
8849;SDS011;5638;50.860;4.698;2022-10-30T16:10:50;11.27;;;5.20;;
8849;SDS011;5638;50.860;4.698;2022-10-30T16:13:20;8.30;;;4.80;;
8849;SDS011;5638;50.860;4.698;2022-10-30T16:15:54;11.60;;;4.90;;
8849;SDS011;5638;50.860;4.698;2022-10-30T16:18:27;13.23;;;5.40;;
8849;SDS011;5638;50.860;4.698;2022-10-30T16:21:00;12.77;;;5.67;;
8849;SDS011;5638;50.860;4.698;2022-10-30T16:23:36;13.80;;;5.40;;
8849;SDS011;5638;50.860;4.698;2022-10-30T16:26:22;14.73;;;5.80;;
8849;SDS011;5638;50.860;4.698;2022-10-30T16:31:37;14.47;;;5.23;;
8849;SDS011;5638;50.860;4.698;2022-10-30T16:34:08;10.27;;;5.90;;
8849;SDS011;5638;50.860;4.698;2022-10-30T16:36:42;14.57;;;5.47;;
8849;SDS011;5638;50.860;4.698;2022-10-30T16:39:12;9.13;;;5.00;;
8849;SDS011;5638;50.860;4.698;2022-10-30T16:41:43;11.97;;;6.23;;
8849;SDS011;5638;50.860;4.698;2022-10-30T16:44:13;10.70;;;5.77;;
8849;SDS011;5638;50.860;4.698;2022-10-30T16:49:23;13.77;;;5.93;;
8849;SDS011;5638;50.860;4.698;2022-10-30T16:52:01;12.13;;;6.27;;
8849;SDS011;5638;50.860;4.698;2022-10-30T16:54:31;12.47;;;5.20;;
8849;SDS011;5638;50.860;4.698;2022-10-30T16:57:02;10.70;;;5.63;;
8849;SDS011;5638;50.860;4.698;2022-10-30T16:59:43;10.53;;;5.83;;
8849;SDS011;5638;50.860;4.698;2022-10-30T17:02:14;10.33;;;5.33;;
8849;SDS011;5638;50.860;4.698;2022-10-30T17:04:45;13.53;;;6.30;;
8849;SDS011;5638;50.860;4.698;2022-10-30T17:07:19;12.57;;;5.47;;
8849;SDS011;5638;50.860;4.698;2022-10-30T17:09:49;12.03;;;5.93;;
8849;SDS011;5638;50.860;4.698;2022-10-30T17:14:50;8.33;;;4.90;;
8849;SDS011;5638;50.860;4.698;2022-10-30T17:17:35;11.77;;;5.30;;
8849;SDS011;5638;50.860;4.698;2022-10-30T17:20:23;11.80;;;5.57;;
8849;SDS011;5638;50.860;4.698;2022-10-30T17:25:50;12.03;;;6.07;;
8849;SDS011;5638;50.860;4.698;2022-10-30T17:28:25;11.67;;;6.00;;
8849;SDS011;5638;50.860;4.698;2022-10-30T17:30:57;10.40;;;5.77;;
8849;SDS011;5638;50.860;4.698;2022-10-30T17:34:16;10.13;;;5.83;;
8849;SDS011;5638;50.860;4.698;2022-10-30T17:36:45;15.07;;;6.60;;
8849;SDS011;5638;50.860;4.698;2022-10-30T17:39:12;10.70;;;6.23;;
8849;SDS011;5638;50.860;4.698;2022-10-30T17:41:39;11.37;;;6.20;;
8849;SDS011;5638;50.860;4.698;2022-10-30T17:44:06;12.87;;;6.47;;
8849;SDS011;5638;50.860;4.698;2022-10-30T17:46:45;13.80;;;6.30;;
8849;SDS011;5638;50.860;4.698;2022-10-30T17:49:24;11.50;;;5.83;;
8849;SDS011;5638;50.860;4.698;2022-10-30T17:51:56;8.67;;;6.00;;
8849;SDS011;5638;50.860;4.698;2022-10-30T17:54:23;9.70;;;6.10;;
8849;SDS011;5638;50.860;4.698;2022-10-30T17:56:50;13.43;;;6.50;;
8849;SDS011;5638;50.860;4.698;2022-10-30T17:59:16;11.93;;;5.83;;
8849;SDS011;5638;50.860;4.698;2022-10-30T18:01:42;17.77;;;6.80;;
8849;SDS011;5638;50.860;4.698;2022-10-30T18:04:13;13.60;;;6.50;;
8849;SDS011;5638;50.860;4.698;2022-10-30T18:06:41;13.17;;;6.33;;
8849;SDS011;5638;50.860;4.698;2022-10-30T18:09:08;14.73;;;7.47;;